sensor_id;sensor_type;location;lat;lon;timestamp;temperature;humidity
10512;DHT22;5304;48.604;2.096;2023-04-02T00:01:40;8.80;99.90
10512;DHT22;5304;48.604;2.096;2023-04-02T00:04:25;8.90;99.90
10512;DHT22;5304;48.604;2.096;2023-04-02T00:07:27;8.90;99.90
10512;DHT22;5304;48.604;2.096;2023-04-02T00:16:03;8.80;99.90
10512;DHT22;5304;48.604;2.096;2023-04-02T00:18:52;8.90;99.90
10512;DHT22;5304;48.604;2.096;2023-04-02T00:21:38;8.90;99.90
10512;DHT22;5304;48.604;2.096;2023-04-02T00:24:24;9.00;99.90
10512;DHT22;5304;48.604;2.096;2023-04-02T00:27:13;9.10;99.90
10512;DHT22;5304;48.604;2.096;2023-04-02T00:29:58;9.10;99.90
10512;DHT22;5304;48.604;2.096;2023-04-02T00:32:43;9.10;99.90
10512;DHT22;5304;48.604;2.096;2023-04-02T00:35:28;9.20;99.90
10512;DHT22;5304;48.604;2.096;2023-04-02T00:38:31;9.10;99.90
10512;DHT22;5304;48.604;2.096;2023-04-02T00:41:21;9.20;99.90
10512;DHT22;5304;48.604;2.096;2023-04-02T00:44:11;9.20;99.90
10512;DHT22;5304;48.604;2.096;2023-04-02T00:46:56;9.20;99.90
10512;DHT22;5304;48.604;2.096;2023-04-02T00:49:41;9.20;99.90
10512;DHT22;5304;48.604;2.096;2023-04-02T00:52:28;9.20;99.90
10512;DHT22;5304;48.604;2.096;2023-04-02T00:55:33;9.20;99.90
10512;DHT22;5304;48.604;2.096;2023-04-02T00:58:24;9.20;99.90
10512;DHT22;5304;48.604;2.096;2023-04-02T01:01:22;9.20;99.90
10512;DHT22;5304;48.604;2.096;2023-04-02T01:04:34;9.30;99.90
10512;DHT22;5304;48.604;2.096;2023-04-02T01:07:26;9.30;99.90
10512;DHT22;5304;48.604;2.096;2023-04-02T01:16:15;9.20;99.90
10512;DHT22;5304;48.604;2.096;2023-04-02T01:22:12;9.20;99.90
10512;DHT22;5304;48.604;2.096;2023-04-02T01:25:04;9.30;99.90
10512;DHT22;5304;48.604;2.096;2023-04-02T01:27:59;9.20;99.90
10512;DHT22;5304;48.604;2.096;2023-04-02T01:30:48;9.20;99.90
10512;DHT22;5304;48.604;2.096;2023-04-02T01:33:34;9.30;99.90
10512;DHT22;5304;48.604;2.096;2023-04-02T01:36:40;9.40;99.90
10512;DHT22;5304;48.604;2.096;2023-04-02T01:45:22;9.30;99.90
10512;DHT22;5304;48.604;2.096;2023-04-02T01:48:22;9.30;99.90
10512;DHT22;5304;48.604;2.096;2023-04-02T01:51:22;9.40;99.90
10512;DHT22;5304;48.604;2.096;2023-04-02T01:54:09;9.30;99.90
10512;DHT22;5304;48.604;2.096;2023-04-02T01:56:55;9.30;99.90
10512;DHT22;5304;48.604;2.096;2023-04-02T01:59:43;9.40;99.90
10512;DHT22;5304;48.604;2.096;2023-04-02T02:02:28;9.40;99.90
10512;DHT22;5304;48.604;2.096;2023-04-02T02:05:16;9.40;99.90
10512;DHT22;5304;48.604;2.096;2023-04-02T02:08:02;9.40;99.90
10512;DHT22;5304;48.604;2.096;2023-04-02T02:10:48;9.30;99.90
10512;DHT22;5304;48.604;2.096;2023-04-02T02:13:33;9.40;99.90
10512;DHT22;5304;48.604;2.096;2023-04-02T02:16:18;9.30;99.90
10512;DHT22;5304;48.604;2.096;2023-04-02T02:19:03;9.30;99.90
10512;DHT22;5304;48.604;2.096;2023-04-02T02:21:53;9.30;99.90
10512;DHT22;5304;48.604;2.096;2023-04-02T02:24:40;9.30;99.90
10512;DHT22;5304;48.604;2.096;2023-04-02T02:33:24;9.20;99.90
10512;DHT22;5304;48.604;2.096;2023-04-02T02:39:14;9.20;99.90
10512;DHT22;5304;48.604;2.096;2023-04-02T02:44:49;9.10;99.90
10512;DHT22;5304;48.604;2.096;2023-04-02T02:47:37;9.10;99.90
10512;DHT22;5304;48.604;2.096;2023-04-02T02:50:26;9.10;99.90
10512;DHT22;5304;48.604;2.096;2023-04-02T02:53:22;9.20;99.90
10512;DHT22;5304;48.604;2.096;2023-04-02T02:56:07;9.20;99.90
10512;DHT22;5304;48.604;2.096;2023-04-02T02:58:52;9.10;99.90
10512;DHT22;5304;48.604;2.096;2023-04-02T03:01:37;9.20;99.90
10512;DHT22;5304;48.604;2.096;2023-04-02T03:04:22;9.20;99.90
10512;DHT22;5304;48.604;2.096;2023-04-02T03:07:07;9.10;99.90
10512;DHT22;5304;48.604;2.096;2023-04-02T03:13:21;9.10;99.90
10512;DHT22;5304;48.604;2.096;2023-04-02T03:16:27;9.10;99.90
10512;DHT22;5304;48.604;2.096;2023-04-02T03:22:34;9.00;99.90
10512;DHT22;5304;48.604;2.096;2023-04-02T03:28:22;9.00;99.90
10512;DHT22;5304;48.604;2.096;2023-04-02T03:31:22;9.00;99.90
10512;DHT22;5304;48.604;2.096;2023-04-02T03:34:48;9.00;99.90
10512;DHT22;5304;48.604;2.096;2023-04-02T03:37:45;9.00;99.90
10512;DHT22;5304;48.604;2.096;2023-04-02T03:40:36;8.90;99.90
10512;DHT22;5304;48.604;2.096;2023-04-02T03:43:24;8.90;99.90
10512;DHT22;5304;48.604;2.096;2023-04-02T03:49:13;8.80;99.90
10512;DHT22;5304;48.604;2.096;2023-04-02T03:52:09;8.80;99.90
10512;DHT22;5304;48.604;2.096;2023-04-02T03:54:56;8.80;99.90
10512;DHT22;5304;48.604;2.096;2023-04-02T03:57:46;8.80;99.90
10512;DHT22;5304;48.604;2.096;2023-04-02T04:00:44;8.80;99.90
10512;DHT22;5304;48.604;2.096;2023-04-02T04:06:31;8.80;99.90
10512;DHT22;5304;48.604;2.096;2023-04-02T04:12:25;8.80;99.90
10512;DHT22;5304;48.604;2.096;2023-04-02T04:15:26;8.80;99.90
10512;DHT22;5304;48.604;2.096;2023-04-02T04:18:28;8.80;99.90
10512;DHT22;5304;48.604;2.096;2023-04-02T04:21:24;8.80;99.90
10512;DHT22;5304;48.604;2.096;2023-04-02T04:24:22;8.80;99.90
10512;DHT22;5304;48.604;2.096;2023-04-02T04:27:42;8.80;99.90
10512;DHT22;5304;48.604;2.096;2023-04-02T04:30:55;8.70;99.90
10512;DHT22;5304;48.604;2.096;2023-04-02T04:33:42;8.70;99.90
10512;DHT22;5304;48.604;2.096;2023-04-02T04:36:32;8.80;99.90
10512;DHT22;5304;48.604;2.096;2023-04-02T04:39:43;8.80;99.90
10512;DHT22;5304;48.604;2.096;2023-04-02T04:42:32;8.90;99.90
10512;DHT22;5304;48.604;2.096;2023-04-02T04:48:41;8.90;99.90
10512;DHT22;5304;48.604;2.096;2023-04-02T04:51:36;8.80;99.90
10512;DHT22;5304;48.604;2.096;2023-04-02T04:54:25;8.80;99.90
10512;DHT22;5304;48.604;2.096;2023-04-02T04:57:33;8.80;99.90
10512;DHT22;5304;48.604;2.096;2023-04-02T05:00:47;8.90;99.90
10512;DHT22;5304;48.604;2.096;2023-04-02T05:06:38;8.80;99.90
10512;DHT22;5304;48.604;2.096;2023-04-02T05:12:54;8.90;99.90
10512;DHT22;5304;48.604;2.096;2023-04-02T05:16:00;8.80;99.90
10512;DHT22;5304;48.604;2.096;2023-04-02T05:19:11;8.80;99.90
10512;DHT22;5304;48.604;2.096;2023-04-02T05:22:11;8.80;99.90
10512;DHT22;5304;48.604;2.096;2023-04-02T05:25:21;8.80;99.90
10512;DHT22;5304;48.604;2.096;2023-04-02T05:28:17;8.80;99.90
10512;DHT22;5304;48.604;2.096;2023-04-02T05:31:24;8.80;99.90
10512;DHT22;5304;48.604;2.096;2023-04-02T05:34:10;8.80;99.90
10512;DHT22;5304;48.604;2.096;2023-04-02T05:36:55;8.70;99.90
10512;DHT22;5304;48.604;2.096;2023-04-02T05:39:44;8.70;99.90
10512;DHT22;5304;48.604;2.096;2023-04-02T05:42:33;8.70;99.90
10512;DHT22;5304;48.604;2.096;2023-04-02T05:45:32;8.70;99.90
10512;DHT22;5304;48.604;2.096;2023-04-02T05:48:31;8.70;99.90
10512;DHT22;5304;48.604;2.096;2023-04-02T05:51:23;8.70;99.90
10512;DHT22;5304;48.604;2.096;2023-04-02T05:54:25;8.60;99.90
10512;DHT22;5304;48.604;2.096;2023-04-02T05:57:19;8.60;99.90
10512;DHT22;5304;48.604;2.096;2023-04-02T06:00:07;8.60;99.90
10512;DHT22;5304;48.604;2.096;2023-04-02T06:03:03;8.50;99.90
10512;DHT22;5304;48.604;2.096;2023-04-02T06:05:51;8.50;99.90
10512;DHT22;5304;48.604;2.096;2023-04-02T06:08:40;8.50;99.90
10512;DHT22;5304;48.604;2.096;2023-04-02T06:11:31;8.60;99.90
10512;DHT22;5304;48.604;2.096;2023-04-02T06:14:16;8.70;99.90
10512;DHT22;5304;48.604;2.096;2023-04-02T06:17:01;8.60;99.90
10512;DHT22;5304;48.604;2.096;2023-04-02T06:19:46;8.60;99.90
10512;DHT22;5304;48.604;2.096;2023-04-02T06:22:36;8.60;99.90
10512;DHT22;5304;48.604;2.096;2023-04-02T06:25:46;8.60;99.90
10512;DHT22;5304;48.604;2.096;2023-04-02T06:31:43;8.50;99.90
10512;DHT22;5304;48.604;2.096;2023-04-02T06:34:29;8.50;99.90
10512;DHT22;5304;48.604;2.096;2023-04-02T06:37:32;8.50;99.90
10512;DHT22;5304;48.604;2.096;2023-04-02T06:40:41;8.40;99.90
10512;DHT22;5304;48.604;2.096;2023-04-02T06:43:34;8.50;99.90
10512;DHT22;5304;48.604;2.096;2023-04-02T06:46:31;8.40;99.90
10512;DHT22;5304;48.604;2.096;2023-04-02T06:52:27;8.40;99.90
10512;DHT22;5304;48.604;2.096;2023-04-02T06:58:21;8.50;99.90
10512;DHT22;5304;48.604;2.096;2023-04-02T07:01:06;8.50;99.90
10512;DHT22;5304;48.604;2.096;2023-04-02T07:03:51;8.40;99.90
10512;DHT22;5304;48.604;2.096;2023-04-02T07:06:35;8.40;99.90
10512;DHT22;5304;48.604;2.096;2023-04-02T07:09:20;8.40;99.90
10512;DHT22;5304;48.604;2.096;2023-04-02T07:12:13;8.40;99.90
10512;DHT22;5304;48.604;2.096;2023-04-02T07:14:57;8.40;99.90
10512;DHT22;5304;48.604;2.096;2023-04-02T07:17:42;8.40;99.90
10512;DHT22;5304;48.604;2.096;2023-04-02T07:20:32;8.50;99.90
10512;DHT22;5304;48.604;2.096;2023-04-02T07:23:17;8.50;99.90
10512;DHT22;5304;48.604;2.096;2023-04-02T07:26:02;8.50;99.90
10512;DHT22;5304;48.604;2.096;2023-04-02T07:28:47;8.60;99.90
10512;DHT22;5304;48.604;2.096;2023-04-02T07:31:31;8.60;99.90
10512;DHT22;5304;48.604;2.096;2023-04-02T07:34:15;8.60;99.90
10512;DHT22;5304;48.604;2.096;2023-04-02T07:37:00;8.60;99.90
10512;DHT22;5304;48.604;2.096;2023-04-02T07:39:45;8.70;99.90
10512;DHT22;5304;48.604;2.096;2023-04-02T07:42:29;8.70;99.90
10512;DHT22;5304;48.604;2.096;2023-04-02T07:45:14;8.60;99.90
10512;DHT22;5304;48.604;2.096;2023-04-02T07:48:09;8.70;99.90
10512;DHT22;5304;48.604;2.096;2023-04-02T07:50:54;8.70;99.90
10512;DHT22;5304;48.604;2.096;2023-04-02T07:53:38;8.70;99.90
10512;DHT22;5304;48.604;2.096;2023-04-02T07:56:24;8.80;99.90
10512;DHT22;5304;48.604;2.096;2023-04-02T07:59:08;8.80;99.90
10512;DHT22;5304;48.604;2.096;2023-04-02T08:01:53;8.80;99.90
10512;DHT22;5304;48.604;2.096;2023-04-02T08:04:38;8.80;99.90
10512;DHT22;5304;48.604;2.096;2023-04-02T08:07:22;8.80;99.90
10512;DHT22;5304;48.604;2.096;2023-04-02T08:10:09;8.80;99.90
10512;DHT22;5304;48.604;2.096;2023-04-02T08:12:53;8.80;99.90
10512;DHT22;5304;48.604;2.096;2023-04-02T08:15:38;8.70;99.90
10512;DHT22;5304;48.604;2.096;2023-04-02T08:18:22;8.80;99.90
10512;DHT22;5304;48.604;2.096;2023-04-02T08:21:09;8.80;99.90
10512;DHT22;5304;48.604;2.096;2023-04-02T08:23:53;8.80;99.90
10512;DHT22;5304;48.604;2.096;2023-04-02T08:26:37;8.70;99.90
10512;DHT22;5304;48.604;2.096;2023-04-02T08:29:21;8.70;99.90
10512;DHT22;5304;48.604;2.096;2023-04-02T08:32:08;8.70;99.90
10512;DHT22;5304;48.604;2.096;2023-04-02T08:34:52;8.70;99.90
10512;DHT22;5304;48.604;2.096;2023-04-02T08:37:37;8.70;99.90
10512;DHT22;5304;48.604;2.096;2023-04-02T08:40:33;8.80;99.90
10512;DHT22;5304;48.604;2.096;2023-04-02T08:46:32;8.80;99.90
10512;DHT22;5304;48.604;2.096;2023-04-02T08:49:25;8.80;99.90
10512;DHT22;5304;48.604;2.096;2023-04-02T08:52:22;8.90;99.90
10512;DHT22;5304;48.604;2.096;2023-04-02T08:58:41;8.90;99.90
10512;DHT22;5304;48.604;2.096;2023-04-02T09:04:42;8.90;99.90
10512;DHT22;5304;48.604;2.096;2023-04-02T09:07:27;9.00;99.90
10512;DHT22;5304;48.604;2.096;2023-04-02T09:10:16;8.90;99.90
10512;DHT22;5304;48.604;2.096;2023-04-02T09:13:01;9.00;99.90
10512;DHT22;5304;48.604;2.096;2023-04-02T09:16:09;9.10;99.90
10512;DHT22;5304;48.604;2.096;2023-04-02T09:18:54;9.10;99.90
10512;DHT22;5304;48.604;2.096;2023-04-02T09:21:51;9.10;99.90
10512;DHT22;5304;48.604;2.096;2023-04-02T09:24:40;9.30;99.90
10512;DHT22;5304;48.604;2.096;2023-04-02T09:27:30;9.50;99.90
10512;DHT22;5304;48.604;2.096;2023-04-02T09:30:42;9.60;99.90
10512;DHT22;5304;48.604;2.096;2023-04-02T09:36:35;9.70;99.90
10512;DHT22;5304;48.604;2.096;2023-04-02T09:39:23;9.70;99.90
10512;DHT22;5304;48.604;2.096;2023-04-02T09:42:32;9.60;99.90
10512;DHT22;5304;48.604;2.096;2023-04-02T09:45:22;9.50;99.90
10512;DHT22;5304;48.604;2.096;2023-04-02T09:48:27;9.50;99.90
10512;DHT22;5304;48.604;2.096;2023-04-02T09:57:16;9.40;99.90
10512;DHT22;5304;48.604;2.096;2023-04-02T10:00:09;9.40;99.90
10512;DHT22;5304;48.604;2.096;2023-04-02T10:05:46;9.30;99.90
10512;DHT22;5304;48.604;2.096;2023-04-02T10:08:32;9.40;99.90
10512;DHT22;5304;48.604;2.096;2023-04-02T10:11:29;9.40;99.90
10512;DHT22;5304;48.604;2.096;2023-04-02T10:14:18;9.40;99.90
10512;DHT22;5304;48.604;2.096;2023-04-02T10:17:14;9.40;99.90
10512;DHT22;5304;48.604;2.096;2023-04-02T10:20:18;9.40;99.90
10512;DHT22;5304;48.604;2.096;2023-04-02T10:23:03;9.60;99.90
10512;DHT22;5304;48.604;2.096;2023-04-02T10:32:20;9.50;99.90
10512;DHT22;5304;48.604;2.096;2023-04-02T10:41:22;9.60;99.90
10512;DHT22;5304;48.604;2.096;2023-04-02T10:50:48;9.80;99.90
10512;DHT22;5304;48.604;2.096;2023-04-02T10:56:31;9.80;99.90
10512;DHT22;5304;48.604;2.096;2023-04-02T10:59:23;9.80;99.90
10512;DHT22;5304;48.604;2.096;2023-04-02T11:05:42;9.90;99.90
10512;DHT22;5304;48.604;2.096;2023-04-02T11:08:39;10.00;99.90
10512;DHT22;5304;48.604;2.096;2023-04-02T11:11:35;10.10;99.90
10512;DHT22;5304;48.604;2.096;2023-04-02T11:14:26;10.20;99.90
10512;DHT22;5304;48.604;2.096;2023-04-02T11:17:18;10.30;99.90
10512;DHT22;5304;48.604;2.096;2023-04-02T11:23:29;10.30;99.90
10512;DHT22;5304;48.604;2.096;2023-04-02T11:26:34;10.20;99.90
10512;DHT22;5304;48.604;2.096;2023-04-02T11:29:28;10.20;99.90
10512;DHT22;5304;48.604;2.096;2023-04-02T11:32:25;10.20;99.90
10512;DHT22;5304;48.604;2.096;2023-04-02T11:41:04;10.30;99.90
10512;DHT22;5304;48.604;2.096;2023-04-02T11:43:49;10.30;99.90
10512;DHT22;5304;48.604;2.096;2023-04-02T11:46:43;10.30;99.90
10512;DHT22;5304;48.604;2.096;2023-04-02T11:49:36;10.40;99.90
10512;DHT22;5304;48.604;2.096;2023-04-02T11:52:32;10.50;99.90
10512;DHT22;5304;48.604;2.096;2023-04-02T11:55:23;10.60;99.90
10512;DHT22;5304;48.604;2.096;2023-04-02T12:10:14;10.40;99.90
10512;DHT22;5304;48.604;2.096;2023-04-02T12:13:00;10.40;99.90
10512;DHT22;5304;48.604;2.096;2023-04-02T12:15:45;10.40;99.90
10512;DHT22;5304;48.604;2.096;2023-04-02T12:18:31;10.40;99.90
10512;DHT22;5304;48.604;2.096;2023-04-02T12:21:17;10.30;99.90
10512;DHT22;5304;48.604;2.096;2023-04-02T12:24:03;10.40;99.90
10512;DHT22;5304;48.604;2.096;2023-04-02T12:26:47;10.30;99.90
10512;DHT22;5304;48.604;2.096;2023-04-02T12:29:32;10.20;99.90
10512;DHT22;5304;48.604;2.096;2023-04-02T12:32:28;10.20;99.90
10512;DHT22;5304;48.604;2.096;2023-04-02T12:35:43;10.10;99.90
10512;DHT22;5304;48.604;2.096;2023-04-02T12:38:31;10.20;99.90
10512;DHT22;5304;48.604;2.096;2023-04-02T12:44:16;10.20;99.90
10512;DHT22;5304;48.604;2.096;2023-04-02T12:47:03;10.10;99.90
10512;DHT22;5304;48.604;2.096;2023-04-02T12:49:48;10.10;99.90
10512;DHT22;5304;48.604;2.096;2023-04-02T12:52:32;10.10;99.90
10512;DHT22;5304;48.604;2.096;2023-04-02T12:55:20;10.10;99.90
10512;DHT22;5304;48.604;2.096;2023-04-02T12:58:24;10.10;99.90
10512;DHT22;5304;48.604;2.096;2023-04-02T13:01:16;10.10;99.90
10512;DHT22;5304;48.604;2.096;2023-04-02T13:06:52;10.20;99.90
10512;DHT22;5304;48.604;2.096;2023-04-02T13:09:48;10.20;99.90
10512;DHT22;5304;48.604;2.096;2023-04-02T13:12:34;10.30;99.90
10512;DHT22;5304;48.604;2.096;2023-04-02T13:15:22;10.30;99.90
10512;DHT22;5304;48.604;2.096;2023-04-02T13:18:18;10.40;99.90
10512;DHT22;5304;48.604;2.096;2023-04-02T13:24:00;10.40;99.90
10512;DHT22;5304;48.604;2.096;2023-04-02T13:26:45;10.30;99.90
10512;DHT22;5304;48.604;2.096;2023-04-02T13:29:33;10.30;99.90
10512;DHT22;5304;48.604;2.096;2023-04-02T13:32:18;10.30;99.90
10512;DHT22;5304;48.604;2.096;2023-04-02T13:35:03;10.30;99.90
10512;DHT22;5304;48.604;2.096;2023-04-02T13:37:47;10.30;99.90
10512;DHT22;5304;48.604;2.096;2023-04-02T13:40:32;10.40;99.90
10512;DHT22;5304;48.604;2.096;2023-04-02T13:43:18;10.50;99.90
10512;DHT22;5304;48.604;2.096;2023-04-02T13:46:05;10.40;99.90
10512;DHT22;5304;48.604;2.096;2023-04-02T13:48:52;10.40;99.90
10512;DHT22;5304;48.604;2.096;2023-04-02T13:51:39;10.40;99.90
10512;DHT22;5304;48.604;2.096;2023-04-02T13:54:44;10.40;99.90
10512;DHT22;5304;48.604;2.096;2023-04-02T13:57:30;10.40;99.90
10512;DHT22;5304;48.604;2.096;2023-04-02T14:00:17;10.30;99.90
10512;DHT22;5304;48.604;2.096;2023-04-02T14:03:09;10.20;99.90
10512;DHT22;5304;48.604;2.096;2023-04-02T14:09:47;10.20;99.90
10512;DHT22;5304;48.604;2.096;2023-04-02T14:12:44;10.50;99.90
10512;DHT22;5304;48.604;2.096;2023-04-02T14:15:35;10.60;99.90
10512;DHT22;5304;48.604;2.096;2023-04-02T14:36:52;10.30;99.90
10512;DHT22;5304;48.604;2.096;2023-04-02T14:43:03;10.00;99.90
10512;DHT22;5304;48.604;2.096;2023-04-02T14:45:56;10.00;99.90
10512;DHT22;5304;48.604;2.096;2023-04-02T14:54:37;9.90;99.90
10512;DHT22;5304;48.604;2.096;2023-04-02T14:58:03;9.90;99.90
10512;DHT22;5304;48.604;2.096;2023-04-02T15:00:50;10.00;99.90
10512;DHT22;5304;48.604;2.096;2023-04-02T15:04:07;10.00;99.90
10512;DHT22;5304;48.604;2.096;2023-04-02T15:07:00;9.80;99.90
10512;DHT22;5304;48.604;2.096;2023-04-02T15:09:53;9.80;99.90
10512;DHT22;5304;48.604;2.096;2023-04-02T15:12:41;9.80;99.90
10512;DHT22;5304;48.604;2.096;2023-04-02T15:15:40;9.80;99.90
10512;DHT22;5304;48.604;2.096;2023-04-02T15:18:25;9.80;99.90
10512;DHT22;5304;48.604;2.096;2023-04-02T15:27:47;9.70;99.90
10512;DHT22;5304;48.604;2.096;2023-04-02T15:30:36;9.60;99.90
10512;DHT22;5304;48.604;2.096;2023-04-02T15:36:19;9.60;99.90
10512;DHT22;5304;48.604;2.096;2023-04-02T15:42:22;9.60;99.90
10512;DHT22;5304;48.604;2.096;2023-04-02T15:48:28;9.90;99.90
10512;DHT22;5304;48.604;2.096;2023-04-02T15:54:31;9.90;99.90
10512;DHT22;5304;48.604;2.096;2023-04-02T15:57:44;9.90;99.90
10512;DHT22;5304;48.604;2.096;2023-04-02T16:06:59;9.70;99.90
10512;DHT22;5304;48.604;2.096;2023-04-02T16:10:05;9.70;99.90
10512;DHT22;5304;48.604;2.096;2023-04-02T16:12:55;9.70;99.90
10512;DHT22;5304;48.604;2.096;2023-04-02T16:16:17;9.70;99.90
10512;DHT22;5304;48.604;2.096;2023-04-02T16:22:20;9.60;99.90
10512;DHT22;5304;48.604;2.096;2023-04-02T16:25:18;9.60;99.90
10512;DHT22;5304;48.604;2.096;2023-04-02T16:28:07;9.60;99.90
10512;DHT22;5304;48.604;2.096;2023-04-02T16:31:04;9.50;99.90
10512;DHT22;5304;48.604;2.096;2023-04-02T17:08:19;8.90;99.90
10512;DHT22;5304;48.604;2.096;2023-04-02T17:11:40;8.90;99.90
10512;DHT22;5304;48.604;2.096;2023-04-02T17:14:42;8.70;99.90
10512;DHT22;5304;48.604;2.096;2023-04-02T17:17:30;8.70;99.90
10512;DHT22;5304;48.604;2.096;2023-04-02T17:20:19;8.50;99.90
10512;DHT22;5304;48.604;2.096;2023-04-02T17:23:05;8.40;99.90
10512;DHT22;5304;48.604;2.096;2023-04-02T17:26:06;8.40;99.90
10512;DHT22;5304;48.604;2.096;2023-04-02T17:28:52;8.40;99.90
10512;DHT22;5304;48.604;2.096;2023-04-02T17:31:38;8.40;99.90
10512;DHT22;5304;48.604;2.096;2023-04-02T17:34:25;8.30;99.90
10512;DHT22;5304;48.604;2.096;2023-04-02T17:37:22;8.20;99.90
10512;DHT22;5304;48.604;2.096;2023-04-02T17:43:36;8.20;99.90
10512;DHT22;5304;48.604;2.096;2023-04-02T17:49:35;8.10;99.90
10512;DHT22;5304;48.604;2.096;2023-04-02T18:04:40;8.00;99.90
10512;DHT22;5304;48.604;2.096;2023-04-02T18:13:58;8.00;99.90
10512;DHT22;5304;48.604;2.096;2023-04-02T18:19:49;8.00;99.90
10512;DHT22;5304;48.604;2.096;2023-04-02T18:22:55;7.90;99.90
10512;DHT22;5304;48.604;2.096;2023-04-02T18:46:32;7.80;99.90
10512;DHT22;5304;48.604;2.096;2023-04-02T18:49:33;7.70;99.90
10512;DHT22;5304;48.604;2.096;2023-04-02T18:52:19;7.80;99.90
10512;DHT22;5304;48.604;2.096;2023-04-02T18:55:06;7.80;99.90
10512;DHT22;5304;48.604;2.096;2023-04-02T18:58:14;7.80;99.90
10512;DHT22;5304;48.604;2.096;2023-04-02T19:01:04;7.70;99.90
10512;DHT22;5304;48.604;2.096;2023-04-02T19:03:52;7.70;99.90
10512;DHT22;5304;48.604;2.096;2023-04-02T19:06:44;7.60;99.90
10512;DHT22;5304;48.604;2.096;2023-04-02T19:09:35;7.60;99.90
10512;DHT22;5304;48.604;2.096;2023-04-02T19:12:22;7.70;99.90
10512;DHT22;5304;48.604;2.096;2023-04-02T19:15:15;7.60;99.90
10512;DHT22;5304;48.604;2.096;2023-04-02T19:18:29;7.60;99.90
10512;DHT22;5304;48.604;2.096;2023-04-02T19:28:06;7.40;99.90
10512;DHT22;5304;48.604;2.096;2023-04-02T19:37:15;7.50;99.90
10512;DHT22;5304;48.604;2.096;2023-04-02T19:40:17;7.50;99.90
10512;DHT22;5304;48.604;2.096;2023-04-02T19:43:02;7.50;99.90
10512;DHT22;5304;48.604;2.096;2023-04-02T19:45:47;7.50;99.90
10512;DHT22;5304;48.604;2.096;2023-04-02T19:49:07;7.50;99.90
10512;DHT22;5304;48.604;2.096;2023-04-02T19:51:55;7.50;99.90
10512;DHT22;5304;48.604;2.096;2023-04-02T19:54:39;7.50;99.90
10512;DHT22;5304;48.604;2.096;2023-04-02T19:57:24;7.40;99.90
10512;DHT22;5304;48.604;2.096;2023-04-02T20:00:12;7.40;99.90
10512;DHT22;5304;48.604;2.096;2023-04-02T20:02:56;7.50;99.90
10512;DHT22;5304;48.604;2.096;2023-04-02T20:05:42;7.50;99.90
10512;DHT22;5304;48.604;2.096;2023-04-02T20:08:27;7.50;99.90
10512;DHT22;5304;48.604;2.096;2023-04-02T20:11:11;7.40;99.90
10512;DHT22;5304;48.604;2.096;2023-04-02T20:13:56;7.40;99.90
10512;DHT22;5304;48.604;2.096;2023-04-02T20:16:41;7.40;99.90
10512;DHT22;5304;48.604;2.096;2023-04-02T20:19:26;7.50;99.90
10512;DHT22;5304;48.604;2.096;2023-04-02T20:22:11;7.50;99.90
10512;DHT22;5304;48.604;2.096;2023-04-02T20:24:55;7.40;99.90
10512;DHT22;5304;48.604;2.096;2023-04-02T20:27:40;7.40;99.90
10512;DHT22;5304;48.604;2.096;2023-04-02T20:30:24;7.40;99.90
10512;DHT22;5304;48.604;2.096;2023-04-02T20:33:11;7.40;99.90
10512;DHT22;5304;48.604;2.096;2023-04-02T20:36:01;7.30;99.90
10512;DHT22;5304;48.604;2.096;2023-04-02T20:38:47;7.30;99.90
10512;DHT22;5304;48.604;2.096;2023-04-02T20:41:34;7.30;99.90
10512;DHT22;5304;48.604;2.096;2023-04-02T20:44:18;7.20;99.90
10512;DHT22;5304;48.604;2.096;2023-04-02T20:47:03;7.20;99.90
10512;DHT22;5304;48.604;2.096;2023-04-02T20:49:47;7.20;99.90
10512;DHT22;5304;48.604;2.096;2023-04-02T20:52:33;7.20;99.90
10512;DHT22;5304;48.604;2.096;2023-04-02T20:55:17;7.20;99.90
10512;DHT22;5304;48.604;2.096;2023-04-02T20:58:02;7.20;99.90
10512;DHT22;5304;48.604;2.096;2023-04-02T21:00:46;7.20;99.90
10512;DHT22;5304;48.604;2.096;2023-04-02T21:03:30;7.20;99.90
10512;DHT22;5304;48.604;2.096;2023-04-02T21:06:17;7.20;99.90
10512;DHT22;5304;48.604;2.096;2023-04-02T21:09:04;7.10;99.90
10512;DHT22;5304;48.604;2.096;2023-04-02T21:11:52;7.20;99.90
10512;DHT22;5304;48.604;2.096;2023-04-02T21:14:37;7.20;99.90
10512;DHT22;5304;48.604;2.096;2023-04-02T21:17:23;7.20;99.90
10512;DHT22;5304;48.604;2.096;2023-04-02T21:20:08;7.20;99.90
10512;DHT22;5304;48.604;2.096;2023-04-02T21:22:52;7.20;99.90
10512;DHT22;5304;48.604;2.096;2023-04-02T21:25:36;7.20;99.90
10512;DHT22;5304;48.604;2.096;2023-04-02T21:28:21;7.20;99.90
10512;DHT22;5304;48.604;2.096;2023-04-02T21:31:09;7.10;99.90
10512;DHT22;5304;48.604;2.096;2023-04-02T21:33:56;7.10;99.90
10512;DHT22;5304;48.604;2.096;2023-04-02T21:36:42;7.10;99.90
10512;DHT22;5304;48.604;2.096;2023-04-02T21:39:27;7.10;99.90
10512;DHT22;5304;48.604;2.096;2023-04-02T21:42:12;7.10;99.90
10512;DHT22;5304;48.604;2.096;2023-04-02T21:44:57;7.00;99.90
10512;DHT22;5304;48.604;2.096;2023-04-02T21:47:42;6.90;99.90
10512;DHT22;5304;48.604;2.096;2023-04-02T21:50:26;6.90;99.90
10512;DHT22;5304;48.604;2.096;2023-04-02T21:53:11;6.90;99.90
10512;DHT22;5304;48.604;2.096;2023-04-02T21:56:05;6.90;99.90
10512;DHT22;5304;48.604;2.096;2023-04-02T21:58:51;7.00;99.90
10512;DHT22;5304;48.604;2.096;2023-04-02T22:01:38;7.00;99.90
10512;DHT22;5304;48.604;2.096;2023-04-02T22:04:24;7.10;99.90
10512;DHT22;5304;48.604;2.096;2023-04-02T22:07:12;7.10;99.90
10512;DHT22;5304;48.604;2.096;2023-04-02T22:09:58;7.10;99.90
10512;DHT22;5304;48.604;2.096;2023-04-02T22:12:42;7.00;99.90
10512;DHT22;5304;48.604;2.096;2023-04-02T22:15:27;7.00;99.90
10512;DHT22;5304;48.604;2.096;2023-04-02T22:18:14;7.00;99.90
10512;DHT22;5304;48.604;2.096;2023-04-02T22:20:59;7.00;99.90
10512;DHT22;5304;48.604;2.096;2023-04-02T22:23:44;7.00;99.90
10512;DHT22;5304;48.604;2.096;2023-04-02T22:26:30;7.00;99.90
10512;DHT22;5304;48.604;2.096;2023-04-02T22:29:15;7.00;99.90
10512;DHT22;5304;48.604;2.096;2023-04-02T22:31:59;7.00;99.90
10512;DHT22;5304;48.604;2.096;2023-04-02T22:34:44;7.00;99.90
10512;DHT22;5304;48.604;2.096;2023-04-02T22:37:30;6.90;99.90
10512;DHT22;5304;48.604;2.096;2023-04-02T22:40:16;7.00;99.90
10512;DHT22;5304;48.604;2.096;2023-04-02T22:43:01;7.00;99.90
10512;DHT22;5304;48.604;2.096;2023-04-02T22:45:48;7.00;99.90
10512;DHT22;5304;48.604;2.096;2023-04-02T22:48:33;7.00;99.90
10512;DHT22;5304;48.604;2.096;2023-04-02T22:51:21;7.00;99.90
10512;DHT22;5304;48.604;2.096;2023-04-02T22:54:05;7.00;99.90
10512;DHT22;5304;48.604;2.096;2023-04-02T22:56:50;7.00;99.90
10512;DHT22;5304;48.604;2.096;2023-04-02T22:59:35;7.00;99.90
10512;DHT22;5304;48.604;2.096;2023-04-02T23:02:19;7.10;99.90
10512;DHT22;5304;48.604;2.096;2023-04-02T23:05:04;7.10;99.90
10512;DHT22;5304;48.604;2.096;2023-04-02T23:07:49;7.10;99.90
10512;DHT22;5304;48.604;2.096;2023-04-02T23:10:33;7.10;99.90
10512;DHT22;5304;48.604;2.096;2023-04-02T23:13:18;7.00;99.90
10512;DHT22;5304;48.604;2.096;2023-04-02T23:16:05;7.00;99.90
10512;DHT22;5304;48.604;2.096;2023-04-02T23:18:50;7.10;99.90
10512;DHT22;5304;48.604;2.096;2023-04-02T23:21:34;7.10;99.90
10512;DHT22;5304;48.604;2.096;2023-04-02T23:24:18;7.10;99.90
10512;DHT22;5304;48.604;2.096;2023-04-02T23:27:03;7.10;99.90
10512;DHT22;5304;48.604;2.096;2023-04-02T23:29:48;7.00;99.90
10512;DHT22;5304;48.604;2.096;2023-04-02T23:32:32;7.00;99.90
10512;DHT22;5304;48.604;2.096;2023-04-02T23:35:17;7.00;99.90